Time;durP1;ratioP1;P1;durP2;ratioP2;P2;SDS_P1;SDS_P2;PMS_P1;PMS_P2;Temp;Humidity;BMP_temperature;BMP_pressure;BME280_temperature;BME280_humidity;BME280_pressure;Samples;Min_cycle;Max_cycle;Signal;HPM_P1;HPM_P2
2022/06/22 00:00:22;;;;;;;16.52;9.73;;;;;;;17.01;59.57;98181.09;5031797;28;20056;-64
2022/06/22 00:02:52;;;;;;;15.80;9.27;;;;;;;16.98;60.08;98192.34;5031297;28;20026;-65
2022/06/22 00:05:22;;;;;;;13.18;8.68;;;;;;;17.04;59.61;98188.81;5030484;28;20029;-64
2022/06/22 00:07:57;;;;;;;14.55;8.00;;;;;;;16.99;60.06;98193.16;5032119;28;20405;-65
2022/06/22 00:10:37;;;;;;;12.30;7.55;;;;;;;16.91;60.00;98195.00;5031567;28;20169;-64
2022/06/22 00:13:13;;;;;;;16.75;8.15;;;;;;;16.93;60.24;98197.50;5030173;28;20044;-64
2022/06/22 00:15:51;;;;;;;12.23;7.75;;;;;;;16.97;60.41;98193.34;5031379;28;20037;-64
2022/06/22 00:18:25;;;;;;;11.02;7.63;;;;;;;16.76;61.46;98200.56;5031836;28;21001;-65
2022/06/22 00:20:53;;;;;;;10.95;7.13;;;;;;;16.68;61.64;98199.94;5030657;28;20393;-65
2022/06/22 00:23:44;;;;;;;12.52;7.00;;;;;;;16.83;60.51;98213.25;5029996;28;20029;-64
2022/06/22 00:26:24;;;;;;;13.80;7.20;;;;;;;16.81;60.84;98210.78;5031211;28;20116;-65
2022/06/22 00:29:02;;;;;;;8.63;6.32;;;;;;;16.67;61.68;98226.13;5031119;28;20091;-64
2022/06/22 00:31:35;;;;;;;10.75;7.03;;;;;;;16.69;61.37;98212.41;5030494;28;20033;-67
2022/06/22 00:34:03;;;;;;;9.80;6.20;;;;;;;16.58;61.99;98209.25;5029363;28;20492;-65
2022/06/22 00:36:36;;;;;;;9.90;6.13;;;;;;;16.59;61.46;98213.63;5030214;28;20040;-65
2022/06/22 00:39:28;;;;;;;6.95;5.50;;;;;;;16.53;61.66;98210.91;5029575;28;20469;-65
2022/06/22 00:42:18;;;;;;;7.15;5.80;;;;;;;16.47;61.11;98216.09;5012180;28;20050;-65
2022/06/22 00:45:12;;;;;;;9.38;5.88;;;;;;;16.49;60.96;98213.16;5013066;28;20033;-65
2022/06/22 00:47:40;;;;;;;6.00;5.07;;;;;;;16.42;60.92;98218.56;5027976;28;20477;-64
2022/06/22 00:50:15;;;;;;;7.40;5.15;;;;;;;16.33;61.60;98211.66;5030528;28;20044;-66
2022/06/22 00:52:41;;;;;;;7.20;5.10;;;;;;;16.25;61.84;98219.94;5029153;28;20073;-65
2022/06/22 00:55:40;;;;;;;8.55;4.15;;;;;;;16.40;60.86;98220.63;5031108;28;20035;-64
2022/06/22 00:58:12;;;;;;;7.70;4.75;;;;;;;16.35;61.28;98217.69;5026551;28;20052;-64
2022/06/22 01:00:41;;;;;;;5.57;4.30;;;;;;;16.13;61.78;98228.56;5028466;28;20045;-65
2022/06/22 01:03:21;;;;;;;6.43;4.40;;;;;;;16.14;61.78;98224.03;5029340;28;20034;-66
2022/06/22 01:06:25;;;;;;;9.10;4.55;;;;;;;16.24;60.91;98221.78;5028582;28;20439;-65
2022/06/22 01:09:04;;;;;;;7.80;4.32;;;;;;;16.14;60.59;98216.75;5018996;28;20123;-65
2022/06/22 01:12:22;;;;;;;5.25;4.38;;;;;;;16.10;61.54;98226.28;5030079;28;20037;-67
2022/06/22 01:15:15;;;;;;;5.53;4.45;;;;;;;16.28;60.28;98220.38;5029034;28;20038;-65
2022/06/22 01:17:50;;;;;;;10.48;4.65;;;;;;;16.03;61.64;98228.13;5030696;28;20492;-65
2022/06/22 01:20:32;;;;;;;5.88;4.45;;;;;;;15.98;62.06;98234.09;5029051;28;20033;-65
2022/06/22 01:23:36;;;;;;;4.90;4.32;;;;;;;15.95;62.68;98229.09;5009093;28;20397;-65
2022/06/22 01:26:17;;;;;;;5.20;4.60;;;;;;;15.95;62.95;98234.50;5009655;28;20395;-65
2022/06/22 01:28:54;;;;;;;4.30;3.90;;;;;;;16.08;61.32;98239.16;5008874;28;20474;-65
2022/06/22 01:31:20;;;;;;;7.95;4.25;;;;;;;15.97;61.98;98237.00;5017695;28;20109;-64
2022/06/22 01:33:51;;;;;;;6.32;4.80;;;;;;;16.01;61.90;98238.28;5030778;28;20124;-64
2022/06/22 01:36:25;;;;;;;6.03;4.55;;;;;;;15.92;62.79;98235.75;5028977;28;20500;-65
2022/06/22 01:38:51;;;;;;;5.28;4.78;;;;;;;15.84;63.25;98235.03;5028689;28;20025;-64
2022/06/22 01:41:40;;;;;;;5.95;4.40;;;;;;;15.88;62.68;98245.25;5030214;28;20128;-64
2022/06/22 01:44:22;;;;;;;6.00;4.88;;;;;;;15.98;61.83;98252.19;5030487;28;20045;-64
2022/06/22 01:47:12;;;;;;;7.03;4.70;;;;;;;16.08;61.18;98249.94;5029937;28;20037;-65
2022/06/22 01:50:06;;;;;;;6.22;4.35;;;;;;;16.11;60.80;98248.72;5028497;28;20385;-65
2022/06/22 01:52:47;;;;;;;5.32;4.68;;;;;;;16.12;60.63;98245.81;5030423;28;20032;-66
2022/06/22 01:55:17;;;;;;;6.15;4.70;;;;;;;16.14;59.93;98249.16;5030066;28;20025;-65
2022/06/22 01:57:56;;;;;;;5.70;5.10;;;;;;;16.10;60.16;98253.28;5029041;28;20041;-67
2022/06/22 02:00:22;;;;;;;4.88;4.38;;;;;;;16.01;60.42;98246.38;5030140;28;20056;-65
2022/06/22 02:02:55;;;;;;;5.88;4.75;;;;;;;16.04;60.87;98259.47;5030367;28;20669;-65
2022/06/22 02:05:41;;;;;;;6.95;5.10;;;;;;;15.95;61.30;98230.97;5030089;28;20171;-65
2022/06/22 02:08:18;;;;;;;6.28;4.60;;;;;;;16.12;60.60;98251.22;5008150;28;20053;-65
2022/06/22 02:10:55;;;;;;;6.65;4.78;;;;;;;16.03;60.82;98252.41;5010235;28;20038;-66
2022/06/22 02:13:44;;;;;;;7.82;4.68;;;;;;;15.97;60.89;98223.53;5009257;28;20026;-64
2022/06/22 02:16:24;;;;;;;7.82;4.40;;;;;;;16.21;60.34;98249.19;5010119;28;20041;-65
2022/06/22 02:19:06;;;;;;;4.95;4.45;;;;;;;16.26;58.96;98224.28;5018903;28;20105;-65
2022/06/22 02:21:39;;;;;;;5.82;4.50;;;;;;;16.28;58.95;98249.22;5030274;28;20037;-65
2022/06/22 02:24:06;;;;;;;8.15;5.22;;;;;;;16.42;58.53;98261.78;5029513;28;20047;-67
2022/06/22 02:26:50;;;;;;;9.43;4.43;;;;;;;16.27;58.85;98251.09;5028551;28;20036;-65
2022/06/22 02:29:19;;;;;;;6.75;4.72;;;;;;;16.39;58.34;98254.06;5027717;28;20033;-66
2022/06/22 02:31:46;;;;;;;9.55;4.72;;;;;;;16.04;59.79;98227.09;5029046;28;20041;-64
2022/06/22 02:34:13;;;;;;;6.55;4.78;;;;;;;16.14;59.42;98249.16;5028640;28;20033;-64
2022/06/22 02:36:43;;;;;;;6.55;4.45;;;;;;;16.37;58.69;98258.81;5031597;28;20026;-64
2022/06/22 02:39:11;;;;;;;6.38;4.28;;;;;;;16.33;58.67;98263.81;5032854;28;20065;-65
2022/06/22 02:44:30;;;;;;;6.57;4.72;;;;;;;16.42;58.21;98272.59;5032140;28;20042;-65
2022/06/22 02:47:14;;;;;;;5.78;4.18;;;;;;;16.23;59.17;98267.91;5031332;28;20044;-65
2022/06/22 02:49:44;;;;;;;6.28;4.78;;;;;;;16.26;59.23;98267.50;5027904;28;20394;-66
2022/06/22 02:52:13;;;;;;;6.40;4.82;;;;;;;16.04;59.83;98245.97;5015517;28;20026;-65
2022/06/22 02:54:52;;;;;;;5.88;4.55;;;;;;;16.23;59.67;98263.31;5012887;28;20060;-65
2022/06/22 02:57:40;;;;;;;6.38;5.20;;;;;;;16.19;59.66;98267.47;5012041;28;20034;-65
2022/06/22 03:00:08;;;;;;;7.25;4.95;;;;;;;16.26;59.29;98267.50;5030668;28;20120;-67
2022/06/22 03:02:34;;;;;;;6.20;4.75;;;;;;;16.14;59.98;98269.91;5031576;28;20034;-65
2022/06/22 03:05:00;;;;;;;7.00;5.25;;;;;;;16.05;60.52;98266.53;5033168;28;20033;-65
2022/06/22 03:07:28;;;;;;;5.20;4.70;;;;;;;16.01;61.50;98271.50;5032584;28;20208;-64
2022/06/22 03:09:54;;;;;;;5.80;3.97;;;;;;;16.19;60.01;98271.00;5032094;28;20040;-65
2022/06/22 03:12:20;;;;;;;7.68;5.00;;;;;;;16.22;60.23;98267.06;5031748;28;20037;-65
2022/06/22 03:14:54;;;;;;;5.18;4.68;;;;;;;16.38;59.24;98276.69;5032303;28;20060;-64
2022/06/22 03:17:28;;;;;;;5.15;4.65;;;;;;;16.21;60.01;98273.50;5032174;28;20040;-65
2022/06/22 03:20:01;;;;;;;5.22;4.70;;;;;;;15.98;61.05;98271.88;5030751;28;20051;-64
2022/06/22 03:22:34;;;;;;;6.22;4.72;;;;;;;16.06;60.98;98263.66;5030895;28;20509;-66
2022/06/22 03:25:22;;;;;;;6.13;4.95;;;;;;;16.23;61.32;98274.13;5032226;28;20041;-65
2022/06/22 03:28:01;;;;;;;4.88;4.40;;;;;;;16.57;58.83;98277.84;5031732;28;20032;-65
2022/06/22 03:30:32;;;;;;;4.88;4.20;;;;;;;16.49;59.11;98284.25;5032501;28;20052;-65
2022/06/22 03:33:08;;;;;;;6.97;4.57;;;;;;;16.58;58.77;98284.91;5032020;28;20771;-65
2022/06/22 03:35:51;;;;;;;;;;;;;;;16.83;57.64;98294.34;5033286;28;20026;-64
2022/06/22 03:38:25;;;;;;;5.45;4.55;;;;;;;16.48;58.82;98279.03;5032366;28;20385;-64
2022/06/22 03:40:56;;;;;;;5.43;4.80;;;;;;;16.46;59.02;98273.00;5032372;28;20035;-66
2022/06/22 03:43:50;;;;;;;8.68;4.70;;;;;;;16.63;58.77;98301.34;5031321;28;20148;-64
2022/06/22 03:46:23;;;;;;;5.75;4.20;;;;;;;16.60;58.78;98300.91;5031205;28;20103;-65
2022/06/22 03:48:57;;;;;;;7.72;4.50;;;;;;;16.61;59.18;98300.72;5030765;28;20116;-64
2022/06/22 03:51:43;;;;;;;5.95;4.10;;;;;;;16.58;59.37;98297.56;5031449;28;20037;-64
2022/06/22 03:54:14;;;;;;;;;;;;;;;16.75;58.16;98276.44;5032285;28;20055;-69
2022/06/22 03:56:46;;;;;;;5.45;4.25;;;;;;;17.01;57.96;98319.00;5031762;28;19909;-66
2022/06/22 03:59:12;;;;;;;5.88;3.97;;;;;;;16.64;58.80;98289.50;5030259;28;20045;-65
2022/06/22 04:01:40;;;;;;;4.22;3.65;;;;;;;17.02;57.43;98319.84;5026824;28;20413;-65
2022/06/22 04:04:06;;;;;;;5.60;4.45;;;;;;;16.85;57.80;98308.50;5010590;28;20149;-65
2022/06/22 04:06:45;;;;;;;4.85;3.83;;;;;;;16.78;58.01;98312.00;5027376;28;20497;-65
2022/06/22 04:09:15;;;;;;;7.72;3.85;;;;;;;16.67;58.56;98315.31;5021666;28;20048;-66
2022/06/22 04:11:47;;;;;;;4.15;3.75;;;;;;;16.75;58.27;98325.09;5029979;28;20040;-67
2022/06/22 04:14:26;;;;;;;4.82;4.03;;;;;;;16.76;58.03;98314.09;5031103;28;20612;-65
2022/06/22 04:17:00;;;;;;;5.82;4.20;;;;;;;16.64;58.40;98321.13;5031679;28;20452;-65
2022/06/22 04:19:38;;;;;;;4.63;4.00;;;;;;;16.57;58.97;98317.53;5029764;28;20033;-64
2022/06/22 04:22:09;;;;;;;6.03;4.28;;;;;;;16.57;59.54;98318.38;5029340;28;20079;-65
2022/06/22 04:24:46;;;;;;;5.85;4.10;;;;;;;16.81;58.54;98329.72;5030653;28;20111;-65
2022/06/22 04:27:18;;;;;;;5.68;3.78;;;;;;;17.00;57.38;98325.44;5031396;28;20109;-66
2022/06/22 04:30:10;;;;;;;7.65;4.50;;;;;;;17.01;57.52;98331.69;5029358;28;20493;-64
2022/06/22 04:33:01;;;;;;;4.75;4.00;;;;;;;17.11;57.73;98334.84;5030508;28;20048;-66
2022/06/22 04:35:29;;;;;;;6.68;4.30;;;;;;;17.28;56.45;98332.59;5030638;28;20087;-65
2022/06/22 04:38:10;;;;;;;5.72;4.13;;;;;;;17.22;57.26;98342.34;5031095;28;20033;-65
2022/06/22 04:41:14;;;;;;;3.85;3.33;;;;;;;17.44;57.57;98349.50;5030522;28;20041;-66
2022/06/22 04:43:40;;;;;;;6.63;4.07;;;;;;;17.57;56.26;98349.50;5022536;28;20037;-65
2022/06/22 04:46:11;;;;;;;3.83;3.25;;;;;;;17.82;55.21;98348.91;5029581;28;20116;-65
2022/06/22 04:48:38;;;;;;;4.30;3.90;;;;;;;17.80;55.98;98348.28;5029798;28;20037;-64
2022/06/22 04:51:06;;;;;;;7.32;4.25;;;;;;;17.92;54.98;98354.75;5030394;28;20043;-65
2022/06/22 04:53:42;;;;;;;5.90;3.90;;;;;;;17.99;54.52;98349.34;5030729;28;20033;-66
2022/06/22 04:56:14;;;;;;;5.55;3.80;;;;;;;17.82;54.79;98354.31;5029660;28;20030;-65
2022/06/22 04:58:50;;;;;;;4.15;3.72;;;;;;;17.73;55.45;98363.69;5028258;28;21368;-66
2022/06/22 05:01:25;;;;;;;4.40;3.70;;;;;;;17.77;55.42;98348.69;5045983;28;20083;-65
2022/06/22 05:03:55;;;;;;;7.57;3.75;;;;;;;17.75;55.95;98365.16;5030773;28;20358;-64
2022/06/22 05:06:27;;;;;;;5.07;4.32;;;;;;;17.91;55.21;98347.66;5029372;28;20030;-66
2022/06/22 05:09:04;;;;;;;4.35;3.72;;;;;;;18.06;54.64;98336.66;5030375;28;20136;-65
2022/06/22 05:11:40;;;;;;;4.75;3.78;;;;;;;18.26;54.21;98351.22;5029296;28;20127;-65
2022/06/22 05:14:15;;;;;;;7.97;3.80;;;;;;;18.31;53.72;98348.69;5029341;28;20025;-65
2022/06/22 05:16:45;;;;;;;4.38;3.97;;;;;;;18.32;53.71;98356.63;5029746;28;20025;-67
2022/06/22 05:19:13;;;;;;;6.95;4.43;;;;;;;18.38;53.28;98364.94;5029921;28;20079;-66
2022/06/22 05:21:44;;;;;;;4.45;4.05;;;;;;;18.29;53.92;98358.91;5029304;28;20068;-65
2022/06/22 05:24:26;;;;;;;4.75;4.25;;;;;;;18.38;54.43;98365.78;5030791;28;20029;-66
2022/06/22 05:26:56;;;;;;;4.45;4.05;;;;;;;18.18;53.89;98328.72;5030233;28;20033;-65
2022/06/22 05:29:38;;;;;;;4.38;3.58;;;;;;;18.18;53.53;98300.78;5028417;28;20486;-64
2022/06/22 05:32:11;;;;;;;5.05;3.92;;;;;;;18.57;53.00;98358.66;5028771;28;20830;-66
2022/06/22 05:34:41;;;;;;;5.88;3.63;;;;;;;18.20;54.57;98358.28;5030347;28;20037;-65
2022/06/22 05:37:17;;;;;;;6.32;3.97;;;;;;;18.33;54.38;98368.31;5029343;28;20477;-65
2022/06/22 05:39:44;;;;;;;4.55;3.70;;;;;;;18.48;53.26;98371.59;5029686;28;20030;-65
2022/06/22 05:42:12;;;;;;;6.95;4.20;;;;;;;18.60;53.04;98369.06;5030360;28;20083;-67
2022/06/22 05:44:38;;;;;;;7.22;4.22;;;;;;;18.76;52.81;98365.06;5030392;28;20033;-63
2022/06/22 05:47:04;;;;;;;7.40;4.57;;;;;;;19.01;52.78;98366.28;5029573;28;20556;-65
2022/06/22 05:49:38;;;;;;;4.45;3.90;;;;;;;19.36;51.56;98361.31;5029457;28;20095;-65
2022/06/22 05:52:42;;;;;;;4.80;3.80;;;;;;;19.74;51.15;98372.34;5030334;28;20142;-66
2022/06/22 05:55:28;;;;;;;6.40;4.28;;;;;;;19.77;50.59;98377.31;5011727;28;20095;-65
2022/06/22 05:58:01;;;;;;;5.78;4.32;;;;;;;19.86;49.94;98386.88;5029156;28;20042;-64
2022/06/22 06:00:47;;;;;;;6.25;4.40;;;;;;;19.71;50.50;98387.22;5029211;28;20145;-65
2022/06/22 06:03:18;;;;;;;5.03;4.07;;;;;;;19.28;51.00;98380.53;5029209;28;20120;-62
2022/06/22 06:06:06;;;;;;;6.00;4.15;;;;;;;19.33;51.85;98394.31;5028993;28;20072;-64
2022/06/22 06:08:39;;;;;;;5.93;3.60;;;;;;;19.33;51.45;98385.31;5043221;28;20029;-63
2022/06/22 06:11:06;;;;;;;6.60;4.22;;;;;;;19.34;51.13;98390.56;5033973;28;20125;-64
2022/06/22 06:13:43;;;;;;;5.78;4.53;;;;;;;19.47;50.49;98399.66;5033878;28;20037;-64
2022/06/22 06:16:21;;;;;;;5.47;4.45;;;;;;;19.43;50.94;98406.56;5033605;28;20064;-64
2022/06/22 06:18:48;;;;;;;5.65;3.80;;;;;;;19.30;51.71;98407.47;5032788;28;20473;-63
2022/06/22 06:21:17;;;;;;;5.25;3.67;;;;;;;19.58;51.18;98407.13;5028484;28;20038;-66
2022/06/22 06:24:00;;;;;;;4.60;3.88;;;;;;;20.15;49.90;98391.94;5033230;28;20056;-66
2022/06/22 06:29:45;;;;;;;4.28;3.70;;;;;;;23.34;41.85;98394.31;5031619;28;20041;-63
2022/06/22 06:32:22;;;;;;;5.40;3.50;;;;;;;24.53;40.57;98355.34;5031485;28;20051;-62
2022/06/22 06:34:56;;;;;;;7.35;3.70;;;;;;;25.59;38.46;98399.16;5032400;28;20096;-70
2022/06/22 06:37:35;;;;;;;5.07;3.72;;;;;;;25.87;36.85;98386.25;5031062;28;20512;-65
2022/06/22 06:40:01;;;;;;;6.13;3.45;;;;;;;25.94;36.02;98395.09;5031550;28;20041;-64
2022/06/22 06:42:56;;;;;;;3.55;3.20;;;;;;;26.80;36.78;98400.69;5031999;28;20038;-64
2022/06/22 06:45:25;;;;;;;3.83;3.33;;;;;;;26.82;34.15;98405.09;5030143;28;20446;-65
2022/06/22 06:47:57;;;;;;;6.32;3.58;;;;;;;26.85;34.60;98408.13;5030525;28;20099;-68
2022/06/22 06:50:39;;;;;;;6.88;3.10;;;;;;;26.60;34.16;98397.81;5032420;28;20076;-64
2022/06/22 06:53:33;;;;;;;3.42;2.85;;;;;;;26.60;34.87;98403.31;5031268;28;20030;-63
2022/06/22 06:56:06;;;;;;;4.28;3.45;;;;;;;26.09;35.26;98402.63;5027937;28;20046;-64
2022/06/22 06:58:42;;;;;;;4.22;2.97;;;;;;;25.69;35.42;98408.53;5030400;28;20201;-65
2022/06/22 07:01:17;;;;;;;3.95;2.70;;;;;;;25.55;36.17;98410.88;5031407;28;20045;-63
2022/06/22 07:03:43;;;;;;;5.00;3.20;;;;;;;24.72;36.20;98393.38;5031755;28;20063;-64
2022/06/22 07:06:10;;;;;;;4.88;3.00;;;;;;;24.36;36.66;98421.00;5030625;28;20737;-65
2022/06/22 07:08:45;;;;;;;3.38;3.08;;;;;;;24.19;38.65;98426.47;5030526;28;20048;-66
2022/06/22 07:11:31;;;;;;;6.47;3.33;;;;;;;24.09;37.37;98421.63;5031491;28;20025;-64
2022/06/22 07:14:03;;;;;;;3.40;3.05;;;;;;;23.72;38.33;98405.66;5032304;28;20116;-65
2022/06/22 07:16:28;;;;;;;4.78;2.78;;;;;;;23.84;37.82;98425.56;5030522;28;20121;-65
2022/06/22 07:19:04;;;;;;;2.95;2.50;;;;;;;23.98;37.96;98428.00;5029201;28;20159;-66
2022/06/22 07:21:41;;;;;;;5.60;2.83;;;;;;;24.20;37.05;98431.69;5028183;28;20176;-65
2022/06/22 07:24:15;;;;;;;3.15;2.85;;;;;;;24.07;36.96;98430.09;5030794;28;20034;-64
2022/06/22 07:27:08;;;;;;;4.97;3.25;;;;;;;23.41;37.94;98438.69;5027710;28;20099;-64
2022/06/22 07:29:57;;;;;;;4.40;2.70;;;;;;;23.04;38.51;98445.25;5031117;28;20045;-63
2022/06/22 07:32:32;;;;;;;6.00;3.10;;;;;;;22.59;38.66;98448.59;5030889;28;20129;-64
2022/06/22 07:35:01;;;;;;;4.97;2.38;;;;;;;22.14;39.83;98425.41;5046674;28;20531;-65
2022/06/22 07:38:07;;;;;;;6.57;3.20;;;;;;;22.47;39.86;98446.72;5026314;28;20140;-64
2022/06/22 07:40:35;;;;;;;2.90;2.60;;;;;;;22.53;37.56;98452.28;5030066;28;20045;-68
2022/06/22 07:43:01;;;;;;;3.88;2.63;;;;;;;22.26;38.49;98445.34;5031398;28;20417;-67
2022/06/22 07:45:28;;;;;;;8.50;2.70;;;;;;;22.22;39.16;98425.06;5031696;28;20029;-65
2022/06/22 07:48:14;;;;;;;3.03;2.80;;;;;;;22.72;38.45;98448.38;5029383;28;20041;-67
2022/06/22 07:50:48;;;;;;;4.55;3.05;;;;;;;23.33;37.25;98448.06;5030684;28;20474;-68
2022/06/22 07:53:44;;;;;;;3.42;2.65;;;;;;;23.71;37.06;98447.72;5016465;28;20056;-67
2022/06/22 07:56:22;;;;;;;4.63;2.80;;;;;;;24.04;36.17;98451.63;5012279;28;20034;-67
2022/06/22 07:58:54;;;;;;;3.42;2.65;;;;;;;24.11;35.16;98456.94;5029579;28;20056;-67
2022/06/22 08:01:29;;;;;;;5.75;2.70;;;;;;;23.82;36.11;98451.50;5032180;28;20037;-68
2022/06/22 08:04:19;;;;;;;2.88;2.42;;;;;;;24.51;35.93;98469.66;5028423;28;20022;-65
2022/06/22 08:06:48;;;;;;;5.05;2.55;;;;;;;24.89;34.83;98475.47;5014837;28;20081;-66
2022/06/22 08:09:23;;;;;;;2.60;2.40;;;;;;;25.39;34.06;98484.63;5032108;28;20493;-62
2022/06/22 08:12:02;;;;;;;3.10;2.67;;;;;;;25.35;34.50;98472.53;5031757;28;20389;-65
2022/06/22 08:14:44;;;;;;;3.17;2.88;;;;;;;25.37;33.76;98481.31;5016438;28;20088;-64
2022/06/22 08:17:29;;;;;;;3.45;2.50;;;;;;;24.88;34.31;98488.31;5021043;28;20033;-65
2022/06/22 08:19:55;;;;;;;4.28;2.58;;;;;;;24.58;33.34;98470.31;5030370;28;20106;-64
2022/06/22 08:22:21;;;;;;;2.95;2.25;;;;;;;24.34;34.18;98461.44;5026312;28;20470;-65
2022/06/22 08:24:50;;;;;;;3.35;2.25;;;;;;;24.21;34.53;98468.91;5021127;28;20030;-65
2022/06/22 08:27:20;;;;;;;2.97;2.28;;;;;;;24.61;33.51;98469.00;5023120;28;20540;-62
2022/06/22 08:29:49;;;;;;;2.38;2.17;;;;;;;24.83;33.31;98481.94;5030999;28;20033;-64
2022/06/22 08:32:19;;;;;;;2.70;2.50;;;;;;;25.05;33.56;98474.59;5025670;28;20025;-68
2022/06/22 08:34:52;;;;;;;3.38;2.78;;;;;;;25.00;33.40;98477.25;5030402;28;20033;-67
2022/06/22 08:37:26;;;;;;;4.30;2.40;;;;;;;24.85;34.37;98482.53;5031122;28;20028;-67
2022/06/22 08:40:00;;;;;;;2.90;2.67;;;;;;;24.94;33.74;98475.53;5029147;28;20033;-67
2022/06/22 08:42:53;;;;;;;3.80;2.17;;;;;;;25.32;33.11;98481.25;5026856;28;20092;-73
2022/06/22 08:45:37;;;;;;;4.90;2.30;;;;;;;25.48;33.18;98471.34;5052805;28;20107;-75
2022/06/22 08:48:35;;;;;;;2.75;2.28;;;;;;;25.95;32.34;98478.19;5030580;28;20025;-72
2022/06/22 08:51:12;;;;;;;2.58;2.10;;;;;;;25.65;31.62;98484.97;5030024;28;20045;-73
2022/06/22 08:54:05;;;;;;;2.50;1.90;;;;;;;25.33;32.95;98493.88;5029142;28;20029;-71
2022/06/22 08:56:43;;;;;;;2.53;1.73;;;;;;;24.69;33.75;98506.03;5029827;28;20482;-74
2022/06/22 08:59:28;;;;;;;3.00;2.00;;;;;;;24.08;34.59;98491.91;5029193;28;20110;-73
2022/06/22 09:02:30;;;;;;;4.50;2.40;;;;;;;23.59;35.47;98483.28;5029290;28;20045;-72
2022/06/22 09:05:04;;;;;;;4.05;2.10;;;;;;;23.35;36.46;98486.91;5028633;28;20044;-64
2022/06/22 09:07:30;;;;;;;2.58;2.38;;;;;;;23.51;36.18;98493.53;5030086;28;20524;-67
2022/06/22 09:10:24;;;;;;;2.60;2.25;;;;;;;23.93;35.82;98492.44;5029950;28;20025;-64
2022/06/22 09:13:27;;;;;;;3.05;2.08;;;;;;;23.81;36.20;98480.69;5030822;28;20033;-64
2022/06/22 09:16:22;;;;;;;5.88;2.13;;;;;;;23.99;35.57;98487.88;5031027;28;20064;-68
2022/06/22 09:19:29;;;;;;;2.70;2.50;;;;;;;23.90;36.11;98492.91;5054205;28;20041;-65
2022/06/22 09:22:17;;;;;;;2.10;1.98;;;;;;;23.88;35.88;98486.88;4995176;28;20108;-69
2022/06/22 09:25:05;;;;;;;3.38;2.05;;;;;;;23.96;36.30;98482.91;5021993;28;20068;-63
2022/06/22 09:28:10;;;;;;;2.22;2.03;;;;;;;24.33;35.63;98504.38;5026904;28;20045;-63
2022/06/22 09:30:45;;;;;;;2.75;2.10;;;;;;;24.27;36.02;98501.78;5005696;28;20124;-64
2022/06/22 09:33:40;;;;;;;2.20;1.98;;;;;;;24.68;35.38;98516.16;5023666;28;20075;-63
2022/06/22 09:36:08;;;;;;;2.88;2.50;;;;;;;24.55;34.59;98494.59;5024446;28;20397;-67
2022/06/22 09:38:55;;;;;;;3.63;2.05;;;;;;;24.50;35.11;98501.66;5029974;28;20047;-63
2022/06/22 09:41:42;;;;;;;3.63;2.20;;;;;;;24.89;34.42;98500.09;5030514;28;20060;-62
2022/06/22 09:44:13;;;;;;;2.13;1.92;;;;;;;24.87;34.13;98503.06;5031613;28;20037;-67
2022/06/22 09:46:57;;;;;;;2.72;1.88;;;;;;;25.12;34.02;98500.97;5034728;28;20034;-65
2022/06/22 09:49:41;;;;;;;2.58;1.83;;;;;;;25.11;33.95;98511.09;5034296;28;20418;-64
2022/06/22 09:52:09;;;;;;;1.70;1.60;;;;;;;25.04;33.59;98502.25;5033499;28;20466;-63
2022/06/22 09:57:52;;;;;;;2.45;2.25;;;;;;;24.99;34.46;98510.38;5027698;28;20398;-67
2022/06/22 10:00:45;;;;;;;2.47;2.08;;;;;;;25.08;34.83;98517.91;5032745;28;20095;-62
2022/06/22 10:03:45;;;;;;;3.35;2.00;;;;;;;25.48;34.13;98509.69;5034065;28;20128;-62
2022/06/22 10:06:30;;;;;;;2.22;1.90;;;;;;;25.60;33.46;98518.63;5029921;28;20481;-65
2022/06/22 10:08:58;;;;;;;3.85;1.80;;;;;;;25.79;32.82;98516.38;5032350;28;20038;-63
2022/06/22 10:11:52;;;;;;;3.20;1.77;;;;;;;26.10;33.16;98496.69;5032447;28;20172;-63
2022/06/22 10:14:44;;;;;;;1.83;1.50;;;;;;;26.67;32.20;98513.69;5032419;28;20388;-63
2022/06/22 10:17:31;;;;;;;1.83;1.63;;;;;;;26.63;30.95;98512.56;5033111;28;20033;-61
2022/06/22 10:20:40;;;;;;;2.67;1.90;;;;;;;26.14;32.94;98524.41;5032698;28;20033;-62
2022/06/22 10:23:19;;;;;;;2.25;1.65;;;;;;;26.16;31.98;98531.34;5033319;28;20033;-62
2022/06/22 10:25:51;;;;;;;3.53;2.00;;;;;;;25.69;31.91;98527.25;5033201;28;20029;-63
2022/06/22 10:28:28;;;;;;;1.85;1.63;;;;;;;25.57;32.02;98524.63;5032821;28;20049;-61
2022/06/22 10:31:03;;;;;;;2.22;2.03;;;;;;;25.21;33.51;98524.94;5033742;28;20100;-61
2022/06/22 10:34:03;;;;;;;3.35;2.00;;;;;;;25.43;33.53;98528.78;5033245;28;20052;-63
2022/06/22 10:36:31;;;;;;;3.45;2.25;;;;;;;25.41;33.95;98536.44;5032700;28;20065;-62
2022/06/22 10:39:26;;;;;;;2.92;2.40;;;;;;;25.46;33.68;98534.59;5033665;28;20091;-72
2022/06/22 10:45:44;;;;;;;5.63;2.97;;;;;;;25.92;33.58;98542.56;5032124;28;20033;-61
2022/06/22 10:48:32;;;;;;;2.60;2.40;;;;;;;25.91;34.08;98548.31;5032816;28;20086;-63
2022/06/22 10:51:08;;;;;;;2.60;2.40;;;;;;;26.04;33.41;98560.78;5011325;28;20038;-63
2022/06/22 10:53:52;;;;;;;1.90;1.70;;;;;;;25.88;32.94;98543.34;5033471;28;20029;-64
2022/06/22 10:56:39;;;;;;;2.58;2.28;;;;;;;25.26;33.67;98548.81;5031496;28;20033;-62
2022/06/22 10:59:43;;;;;;;3.50;1.67;;;;;;;25.08;33.62;98563.63;5033490;28;20049;-61
2022/06/22 11:02:27;;;;;;;5.65;2.20;;;;;;;24.31;34.60;98554.91;5033564;28;20033;-63
2022/06/22 11:05:02;;;;;;;2.30;2.10;;;;;;;24.17;35.11;98565.31;5031757;28;20126;-63
2022/06/22 11:08:06;;;;;;;2.45;2.10;;;;;;;23.90;35.70;98565.88;5030938;28;20055;-63
2022/06/22 11:11:09;;;;;;;2.00;1.80;;;;;;;23.87;36.00;98572.66;5032758;28;20034;-63
2022/06/22 11:13:37;;;;;;;5.50;1.98;;;;;;;23.89;36.39;98556.84;5032645;28;20080;-61
2022/06/22 11:16:09;;;;;;;2.08;1.70;;;;;;;23.94;35.32;98556.09;5033358;28;20438;-64
2022/06/22 11:18:46;;;;;;;2.67;1.65;;;;;;;24.00;35.33;98571.56;5032415;28;20405;-66
2022/06/22 11:21:18;;;;;;;1.80;1.60;;;;;;;23.72;35.92;98572.34;5031267;28;20048;-61
2022/06/22 11:23:49;;;;;;;3.42;1.50;;;;;;;23.59;36.32;98571.53;5029911;28;20531;-63
2022/06/22 11:32:27;;;;;;;2.03;1.60;;;;;;;23.91;35.53;98584.78;5027071;28;20473;-62
2022/06/22 11:34:52;;;;;;;;;;;;;;;23.98;35.58;98589.25;5024292;28;20056;-65
2022/06/22 11:37:33;;;;;;;;;;;;;;;24.08;35.31;98594.97;5029657;28;20413;-63
2022/06/22 11:40:19;;;;;;;2.42;1.70;;;;;;;23.63;36.92;98583.66;5029271;28;19917;-66
2022/06/22 11:42:50;;;;;;;2.28;1.40;;;;;;;23.76;35.47;98581.72;5026687;28;20051;-64
2022/06/22 11:45:56;;;;;;;3.78;1.67;;;;;;;23.76;35.94;98570.78;5031177;28;20033;-61
2022/06/22 11:48:43;;;;;;;2.40;1.50;;;;;;;23.99;35.55;98590.94;5032004;28;20037;-63
2022/06/22 11:51:28;;;;;;;3.70;1.73;;;;;;;23.59;36.62;98592.56;5031882;28;20041;-62
2022/06/22 11:54:24;;;;;;;2.53;1.70;;;;;;;23.82;35.87;98596.31;5031785;28;20040;-63
2022/06/22 11:56:56;;;;;;;3.58;1.80;;;;;;;23.78;35.87;98590.50;5031528;28;20488;-61
2022/06/22 11:59:52;;;;;;;2.13;1.58;;;;;;;23.85;35.59;98595.84;5031846;28;20136;-62
2022/06/22 12:02:17;;;;;;;;;;;;;;;24.19;35.27;98596.00;5032209;28;20470;-61
2022/06/22 12:04:52;;;;;;;;;;;;;;;24.42;35.05;98599.69;5031524;28;19909;-66
2022/06/22 12:07:32;;;;;;;2.22;1.30;;;;;;;24.31;34.39;98593.22;5030750;28;20006;-62
2022/06/22 12:10:32;;;;;;;3.50;1.55;;;;;;;24.18;35.34;98586.97;5031548;28;20036;-64
2022/06/22 12:13:16;;;;;;;5.05;1.90;;;;;;;23.80;35.92;98596.56;5031651;28;20041;-64
2022/06/22 12:15:59;;;;;;;2.22;1.27;;;;;;;23.86;34.91;98601.03;5031120;28;20095;-61
2022/06/22 12:18:52;;;;;;;1.73;1.20;;;;;;;23.80;34.50;98594.66;5011754;28;20088;-62
2022/06/22 12:21:36;;;;;;;2.65;1.17;;;;;;;23.81;34.14;98568.16;5025715;28;20029;-61
2022/06/22 12:24:28;;;;;;;1.85;1.20;;;;;;;24.02;33.92;98604.13;5031064;28;20048;-62
2022/06/22 12:27:13;;;;;;;1.60;1.10;;;;;;;23.84;33.64;98596.91;5030478;28;20029;-61
2022/06/22 12:29:42;;;;;;;2.00;1.10;;;;;;;23.52;34.96;98600.88;5030690;28;20431;-61
2022/06/22 12:32:17;;;;;;;2.30;1.10;;;;;;;23.67;33.08;98600.38;5030869;28;20177;-62
2022/06/22 12:35:06;;;;;;;1.70;0.70;;;;;;;23.46;31.89;98604.56;5029972;28;20098;-60
2022/06/22 12:38:30;;;;;;;1.77;0.40;;;;;;;23.34;31.06;98601.84;5029030;28;20017;-65
2022/06/22 12:41:31;;;;;;;0.90;0.80;;;;;;;23.18;31.28;98598.72;5014962;28;20095;-62
2022/06/22 12:44:24;;;;;;;1.98;0.70;;;;;;;23.28;31.52;98591.88;5028362;28;20682;-77
2022/06/22 12:47:08;;;;;;;1.98;0.70;;;;;;;23.21;31.71;98589.22;5011806;28;20348;-66